createdAt,value
2023-05-04T00:01:46.894Z,3.90
2023-05-04T00:04:53.058Z,4.00
2023-05-04T00:07:56.529Z,4.00
2023-05-04T00:10:59.902Z,3.90
2023-05-04T00:14:03.180Z,4.00
2023-05-04T00:17:07.819Z,3.90
2023-05-04T00:20:13.860Z,3.80
2023-05-04T00:23:17.141Z,3.80
2023-05-04T00:26:20.406Z,3.70
2023-05-04T00:29:24.228Z,3.70
2023-05-04T00:32:27.675Z,3.60
2023-05-04T00:35:33.042Z,3.60
2023-05-04T00:38:48.046Z,3.50
2023-05-04T00:41:51.248Z,3.40
2023-05-04T00:44:54.623Z,3.40
2023-05-04T00:47:58.487Z,3.30
2023-05-04T00:51:03.947Z,3.20
2023-05-04T00:54:07.706Z,3.30
2023-05-04T00:57:10.957Z,3.20
2023-05-04T01:00:14.825Z,3.30
2023-05-04T01:03:18.455Z,3.30
2023-05-04T01:06:32.294Z,3.40
2023-05-04T01:09:41.401Z,3.40
2023-05-04T01:12:52.385Z,3.50
2023-05-04T01:15:56.533Z,3.60
2023-05-04T01:18:59.714Z,3.60
2023-05-04T01:22:04.465Z,3.50
2023-05-04T01:25:09.020Z,3.50
2023-05-04T01:28:19.778Z,3.30
2023-05-04T01:31:24.654Z,3.10
2023-05-04T01:34:28.018Z,3.00
2023-05-04T01:37:32.745Z,2.90
2023-05-04T01:40:35.904Z,2.90
2023-05-04T01:43:39.082Z,2.90
2023-05-04T01:46:42.717Z,2.80
2023-05-04T01:49:45.978Z,2.70
2023-05-04T01:52:50.728Z,2.60
2023-05-04T01:55:54.220Z,2.60
2023-05-04T01:58:57.372Z,2.60
2023-05-04T02:02:00.666Z,2.60
2023-05-04T02:05:03.934Z,2.60
2023-05-04T02:08:08.741Z,2.50
2023-05-04T02:11:12.339Z,2.40
2023-05-04T02:14:15.895Z,2.30
2023-05-04T02:17:19.104Z,2.20
2023-05-04T02:20:22.269Z,2.20
2023-05-04T02:23:26.832Z,2.10
2023-05-04T02:26:30.043Z,2.10
2023-05-04T02:29:33.624Z,2.00
2023-05-04T02:32:37.549Z,2.00
2023-05-04T02:35:40.741Z,2.10
2023-05-04T02:38:45.288Z,2.10
2023-05-04T02:41:48.660Z,2.00
2023-05-04T02:44:51.860Z,2.10
2023-05-04T02:47:55.389Z,2.00
2023-05-04T02:50:58.871Z,1.90
2023-05-04T02:54:03.602Z,1.90
2023-05-04T02:57:07.422Z,1.90
2023-05-04T03:00:11.402Z,1.90
2023-05-04T03:03:14.561Z,1.90
2023-05-04T03:06:17.839Z,1.90
2023-05-04T03:09:22.465Z,1.90
2023-05-04T03:12:26.243Z,1.90
2023-05-04T03:15:30.088Z,1.90
2023-05-04T03:21:54.490Z,1.90
2023-05-04T03:24:59.053Z,1.90
2023-05-04T03:28:02.212Z,1.90
2023-05-04T03:31:05.529Z,1.90
2023-05-04T03:34:09.943Z,2.00
2023-05-04T03:37:13.205Z,2.00
2023-05-04T03:40:22.293Z,2.10
2023-05-04T03:43:26.908Z,2.20
2023-05-04T03:46:32.316Z,2.30
2023-05-04T03:49:35.979Z,2.40
2023-05-04T03:52:39.263Z,2.50
2023-05-04T03:55:44.484Z,2.60
2023-05-04T03:58:47.762Z,2.70
2023-05-04T04:01:54.721Z,2.80
2023-05-04T04:04:57.970Z,2.90
2023-05-04T04:08:01.459Z,3.00
2023-05-04T04:11:06.419Z,3.10
2023-05-04T04:14:09.652Z,3.20
2023-05-04T04:17:13.063Z,3.40
2023-05-04T04:20:16.340Z,3.50
2023-05-04T04:23:19.574Z,3.70
2023-05-04T04:26:24.121Z,3.90
2023-05-04T04:29:27.535Z,4.10
2023-05-04T04:32:30.843Z,4.30
2023-05-04T04:35:34.309Z,4.50
2023-05-04T04:38:37.913Z,4.80
2023-05-04T04:41:42.547Z,5.00
2023-05-04T04:44:46.156Z,5.30
2023-05-04T04:47:49.600Z,5.40
2023-05-04T04:50:53.928Z,5.60
2023-05-04T04:53:57.167Z,5.70
2023-05-04T04:57:02.377Z,5.90
2023-05-04T05:00:11.668Z,6.10
2023-05-04T05:03:15.995Z,6.20
2023-05-04T05:06:19.619Z,6.40
2023-05-04T05:09:22.939Z,6.60
2023-05-04T05:12:28.203Z,6.70
2023-05-04T05:15:31.632Z,6.90
2023-05-04T05:18:34.989Z,7.00
2023-05-04T05:21:38.567Z,7.10
2023-05-04T05:24:42.096Z,7.20
2023-05-04T05:27:47.027Z,7.30
2023-05-04T05:30:52.102Z,7.40
2023-05-04T05:33:55.537Z,7.50
2023-05-04T05:36:58.996Z,7.60
2023-05-04T05:40:02.859Z,7.70
2023-05-04T05:43:07.850Z,7.70
2023-05-04T05:46:11.626Z,7.90
2023-05-04T05:49:15.194Z,8.00
2023-05-04T05:52:18.466Z,8.20
2023-05-04T05:55:21.698Z,8.40
2023-05-04T05:58:26.304Z,8.50
2023-05-04T06:01:30.153Z,8.50
2023-05-04T06:04:33.495Z,8.70
2023-05-04T06:07:36.814Z,8.80
2023-05-04T06:10:40.253Z,8.90
2023-05-04T06:13:44.850Z,9.00
2023-05-04T06:16:48.317Z,9.30
2023-05-04T06:19:52.018Z,9.60
2023-05-04T06:22:55.273Z,9.70
2023-05-04T06:25:59.000Z,9.90
2023-05-04T06:29:03.758Z,10.10
2023-05-04T06:32:07.474Z,10.20
2023-05-04T06:35:11.670Z,10.30
2023-05-04T06:38:15.038Z,10.40
2023-05-04T06:41:18.341Z,10.50
2023-05-04T06:44:23.167Z,10.60
2023-05-04T06:47:26.734Z,10.70
2023-05-04T06:50:30.540Z,10.80
2023-05-04T06:53:33.979Z,10.90
2023-05-04T06:56:38.674Z,11.10
2023-05-04T06:59:43.400Z,11.20
2023-05-04T07:02:47.086Z,11.30
2023-05-04T07:05:51.297Z,11.50
2023-05-04T07:08:54.739Z,11.50
2023-05-04T07:11:58.085Z,11.50
2023-05-04T07:15:02.813Z,11.50
2023-05-04T07:18:06.228Z,11.50
2023-05-04T07:21:26.949Z,11.60
2023-05-04T07:24:34.520Z,11.70
2023-05-04T07:27:45.588Z,11.70
2023-05-04T07:30:50.282Z,11.80
2023-05-04T07:33:53.645Z,11.80
2023-05-04T07:36:56.898Z,11.90
2023-05-04T07:40:01.391Z,12.30
2023-05-04T07:43:05.701Z,12.30
2023-05-04T07:46:10.450Z,12.40
2023-05-04T07:49:13.836Z,12.50
2023-05-04T07:52:17.169Z,12.60
2023-05-04T07:55:20.695Z,12.60
2023-05-04T07:58:24.024Z,12.70
2023-05-04T08:01:28.650Z,12.80
2023-05-04T08:04:31.962Z,12.70
2023-05-04T08:07:35.209Z,12.80
2023-05-04T08:10:38.709Z,13.00
2023-05-04T08:13:42.123Z,13.10
2023-05-04T08:16:47.420Z,13.10
2023-05-04T08:19:50.992Z,13.00
2023-05-04T08:22:54.461Z,13.10
2023-05-04T08:25:57.724Z,13.20
2023-05-04T08:29:07.806Z,13.20
2023-05-04T08:32:12.849Z,13.30
2023-05-04T08:35:16.436Z,13.40
2023-05-04T08:38:19.739Z,13.40
2023-05-04T08:41:23.310Z,13.40
2023-05-04T08:44:27.229Z,13.70
2023-05-04T08:47:32.057Z,13.60
2023-05-04T08:50:36.455Z,13.60
2023-05-04T08:53:45.555Z,13.50
2023-05-04T08:56:48.796Z,13.50
2023-05-04T08:59:54.465Z,13.60
2023-05-04T09:03:00.965Z,13.60
2023-05-04T09:06:04.634Z,13.90
2023-05-04T09:09:10.062Z,14.00
2023-05-04T09:12:13.715Z,14.20
2023-05-04T09:15:18.219Z,14.00
2023-05-04T09:18:23.077Z,13.80
2023-05-04T09:21:30.518Z,13.80
2023-05-04T09:24:33.882Z,14.00
2023-05-04T09:27:37.205Z,13.90
2023-05-04T09:30:40.630Z,13.90
2023-05-04T09:33:45.770Z,14.00
2023-05-04T09:37:00.632Z,14.10
2023-05-04T09:40:03.996Z,14.10
2023-05-04T09:43:07.563Z,13.90
2023-05-04T09:46:17.493Z,13.70
2023-05-04T09:49:31.956Z,13.90
2023-05-04T09:52:35.529Z,14.30
2023-05-04T09:55:41.652Z,14.70
2023-05-04T09:58:46.653Z,15.00
2023-05-04T10:01:51.306Z,15.20
2023-05-04T10:04:59.217Z,15.30
2023-05-04T10:08:02.676Z,15.60
2023-05-04T10:11:07.447Z,15.70
2023-05-04T10:14:11.586Z,16.00
2023-05-04T10:17:23.743Z,16.00
2023-05-04T10:20:56.358Z,15.90
2023-05-04T10:24:18.391Z,15.90
2023-05-04T10:27:36.385Z,16.00
2023-05-04T10:30:40.053Z,16.20
2023-05-04T10:33:44.091Z,16.30
2023-05-04T10:36:48.734Z,16.50
2023-05-04T10:39:53.614Z,16.30
2023-05-04T10:42:56.862Z,16.30
2023-05-04T10:46:02.121Z,16.90
2023-05-04T10:49:17.910Z,17.00
2023-05-04T10:52:22.652Z,17.20
2023-05-04T10:55:26.007Z,17.40
2023-05-04T10:58:30.126Z,17.30
2023-05-04T11:01:43.877Z,17.20
2023-05-04T11:04:47.356Z,17.50
2023-05-04T11:07:53.301Z,17.60
2023-05-04T11:11:04.810Z,18.10
2023-05-04T11:14:08.315Z,18.20
2023-05-04T11:17:27.396Z,18.80
2023-05-04T11:20:31.808Z,19.10
2023-05-04T11:23:36.860Z,20.10
2023-05-04T11:26:48.877Z,20.30
2023-05-04T11:29:59.333Z,21.10
2023-05-04T11:33:05.115Z,19.70
2023-05-04T11:36:08.833Z,20.20
2023-05-04T11:39:13.735Z,20.10
2023-05-04T11:42:17.494Z,20.80
2023-05-04T11:45:23.308Z,20.00
2023-05-04T11:48:28.001Z,19.20
2023-05-04T11:51:31.227Z,20.40
2023-05-04T11:54:36.946Z,19.90
2023-05-04T11:57:40.517Z,20.60
2023-05-04T12:00:45.412Z,22.10
2023-05-04T12:03:53.910Z,22.90
2023-05-04T12:06:58.965Z,23.40
2023-05-04T12:10:05.130Z,23.20
2023-05-04T12:13:17.743Z,20.80
2023-05-04T12:16:21.885Z,22.00
2023-05-04T12:19:26.064Z,22.70
2023-05-04T12:22:30.268Z,23.20
2023-05-04T12:25:41.379Z,23.30
2023-05-04T12:28:51.346Z,22.30
2023-05-04T12:31:54.712Z,22.70
2023-05-04T12:34:58.377Z,23.80
2023-05-04T12:38:01.970Z,24.30
2023-05-04T12:41:10.873Z,24.60
2023-05-04T12:44:14.327Z,23.70
2023-05-04T12:47:18.495Z,21.80
2023-05-04T12:50:21.788Z,23.00
2023-05-04T12:53:28.023Z,23.80
2023-05-04T12:56:34.574Z,23.50
2023-05-04T12:59:37.985Z,22.40
2023-05-04T13:02:41.360Z,24.00
2023-05-04T13:05:45.369Z,24.60
2023-05-04T13:08:48.706Z,22.40
2023-05-04T13:11:53.493Z,20.90
2023-05-04T13:14:58.017Z,22.20
2023-05-04T13:18:01.628Z,23.70
2023-05-04T13:21:05.147Z,23.90
2023-05-04T13:24:09.179Z,24.10
2023-05-04T13:27:13.836Z,24.10
2023-05-04T13:30:19.975Z,24.60
2023-05-04T13:33:29.666Z,24.10
2023-05-04T13:36:33.965Z,23.70
2023-05-04T13:39:42.193Z,24.20
2023-05-04T13:42:46.974Z,23.40
2023-05-04T13:45:50.301Z,24.30
2023-05-04T13:48:55.704Z,23.60
2023-05-04T13:52:00.649Z,23.90
2023-05-04T13:55:04.706Z,23.40
2023-05-04T13:58:09.918Z,23.50
2023-05-04T14:01:13.301Z,22.80
2023-05-04T14:04:16.585Z,22.00
2023-05-04T14:07:20.028Z,22.70
2023-05-04T14:10:23.468Z,23.40
2023-05-04T14:13:28.240Z,23.40
2023-05-04T14:16:31.550Z,23.30
2023-05-04T14:19:34.866Z,22.70
2023-05-04T14:22:41.177Z,24.00
2023-05-04T14:25:51.397Z,24.20
2023-05-04T14:28:56.228Z,23.40
2023-05-04T14:31:59.454Z,24.00
2023-05-04T14:35:06.650Z,23.90
2023-05-04T14:38:10.601Z,23.50
2023-05-04T14:41:15.342Z,22.80
2023-05-04T14:44:20.146Z,22.80
2023-05-04T14:47:23.791Z,22.60
2023-05-04T14:50:28.544Z,22.80
2023-05-04T14:53:37.115Z,22.50
2023-05-04T14:56:42.749Z,22.80
2023-05-04T14:59:48.722Z,24.10
2023-05-04T15:02:53.901Z,22.90
2023-05-04T15:05:58.475Z,24.50
2023-05-04T15:09:03.013Z,25.00
2023-05-04T15:12:08.646Z,25.30
2023-05-04T15:15:14.806Z,26.00
2023-05-04T15:18:18.260Z,23.60
2023-05-04T15:21:21.713Z,25.30
2023-05-04T15:24:24.919Z,25.10
2023-05-04T15:27:28.104Z,24.40
2023-05-04T15:30:32.708Z,24.90
2023-05-04T15:33:35.964Z,25.40
2023-05-04T15:36:39.301Z,24.70
2023-05-04T15:39:42.762Z,25.00
2023-05-04T15:42:46.004Z,25.60
2023-05-04T15:45:52.679Z,26.40
2023-05-04T15:48:56.678Z,26.30
2023-05-04T15:52:00.227Z,26.20
2023-05-04T15:55:16.334Z,25.90
2023-05-04T15:58:27.471Z,25.80
2023-05-04T16:01:33.389Z,24.60
2023-05-04T16:04:36.991Z,23.50
2023-05-04T16:07:49.354Z,22.50
2023-05-04T16:11:02.442Z,22.20
2023-05-04T16:14:05.694Z,23.70
2023-05-04T16:17:10.362Z,24.10
2023-05-04T16:20:13.893Z,24.80
2023-05-04T16:23:18.724Z,25.10
2023-05-04T16:26:22.245Z,23.60
2023-05-04T16:29:25.682Z,22.30
2023-05-04T16:32:30.471Z,20.70
2023-05-04T16:35:33.849Z,19.90
2023-05-04T16:38:37.107Z,19.20
2023-05-04T16:41:41.283Z,18.90
2023-05-04T16:44:44.930Z,17.90
2023-05-04T16:47:49.793Z,17.40
2023-05-04T16:50:53.445Z,17.20
2023-05-04T16:53:56.893Z,16.80
2023-05-04T16:57:02.289Z,16.60
2023-05-04T17:00:06.836Z,16.30
2023-05-04T17:03:11.902Z,16.00
2023-05-04T17:06:15.369Z,15.70
2023-05-04T17:09:18.785Z,15.50
2023-05-04T17:12:23.247Z,15.20
2023-05-04T17:15:26.691Z,14.90
2023-05-04T17:18:31.483Z,14.70
2023-05-04T17:21:34.941Z,14.50
2023-05-04T17:24:38.358Z,14.20
2023-05-04T17:27:43.825Z,13.90
2023-05-04T17:30:47.204Z,13.70
2023-05-04T17:33:52.543Z,13.50
2023-05-04T17:37:00.294Z,13.40
2023-05-04T17:40:25.005Z,13.20
2023-05-04T17:43:32.325Z,13.00
2023-05-04T17:46:44.406Z,12.60
2023-05-04T17:49:52.513Z,12.50
2023-05-04T17:52:57.923Z,12.30
2023-05-04T17:56:02.933Z,12.10
2023-05-04T17:59:10.689Z,11.80
2023-05-04T18:02:14.305Z,11.60
2023-05-04T18:05:19.273Z,11.50
2023-05-04T18:08:22.716Z,11.20
2023-05-04T18:11:26.234Z,10.90
2023-05-04T18:14:29.625Z,10.60
2023-05-04T18:17:32.924Z,10.50
2023-05-04T18:20:41.576Z,10.30
2023-05-04T18:23:48.178Z,10.30
2023-05-04T18:26:56.246Z,10.10
2023-05-04T18:29:59.952Z,9.90
2023-05-04T18:33:04.009Z,9.60
2023-05-04T18:36:09.244Z,9.40
2023-05-04T18:39:13.729Z,9.50
2023-05-04T18:42:17.972Z,9.60
2023-05-04T18:45:21.654Z,9.50
2023-05-04T18:48:34.155Z,9.40
2023-05-04T18:51:55.527Z,9.10
2023-05-04T18:55:05.730Z,8.90
2023-05-04T18:58:21.190Z,8.90
2023-05-04T19:01:35.791Z,8.90
2023-05-04T19:04:40.678Z,9.00
2023-05-04T19:07:48.147Z,8.90
2023-05-04T19:10:51.518Z,8.90
2023-05-04T19:13:55.799Z,8.60
2023-05-04T19:17:00.788Z,8.60
2023-05-04T19:20:04.810Z,8.60
2023-05-04T19:23:11.778Z,8.50
2023-05-04T19:26:15.427Z,8.30
2023-05-04T19:29:19.392Z,8.20
2023-05-04T19:32:24.761Z,8.20
2023-05-04T19:35:28.846Z,8.20
2023-05-04T19:38:37.732Z,8.20
2023-05-04T19:41:41.701Z,8.00
2023-05-04T19:44:46.307Z,7.90
2023-05-04T19:47:50.616Z,8.00
2023-05-04T19:50:54.332Z,8.00
2023-05-04T19:54:00.182Z,7.80
2023-05-04T19:57:05.008Z,7.70
2023-05-04T20:00:10.578Z,7.50
2023-05-04T20:03:17.117Z,7.50
2023-05-04T20:06:20.703Z,7.50
2023-05-04T20:09:25.865Z,7.50
2023-05-04T20:12:29.527Z,7.50
2023-05-04T20:15:33.150Z,7.40
2023-05-04T20:18:37.434Z,7.40
2023-05-04T20:21:48.578Z,7.40
2023-05-04T20:24:57.434Z,7.40
2023-05-04T20:28:02.257Z,7.40
2023-05-04T20:31:07.726Z,7.50
2023-05-04T20:34:11.843Z,7.60
2023-05-04T20:37:15.451Z,7.60
2023-05-04T20:40:25.288Z,7.50
2023-05-04T20:43:29.204Z,7.40
2023-05-04T20:46:33.055Z,7.40
2023-05-04T20:49:36.500Z,7.50
2023-05-04T20:52:41.523Z,7.50
2023-05-04T20:55:46.382Z,7.50
2023-05-04T20:58:49.776Z,7.50
2023-05-04T21:01:53.085Z,7.60
2023-05-04T21:04:56.485Z,7.50
2023-05-04T21:08:01.074Z,7.40
2023-05-04T21:11:06.518Z,7.30
2023-05-04T21:14:09.833Z,7.20
2023-05-04T21:17:13.077Z,7.10
2023-05-04T21:20:17.192Z,7.00
2023-05-04T21:23:20.666Z,7.10
2023-05-04T21:26:25.937Z,7.00
2023-05-04T21:29:29.478Z,6.90
2023-05-04T21:32:32.758Z,6.80
2023-05-04T21:35:36.038Z,6.70
2023-05-04T21:38:42.917Z,6.70
2023-05-04T21:41:47.598Z,6.60
2023-05-04T21:44:55.338Z,6.60
2023-05-04T21:47:58.646Z,6.60
2023-05-04T21:51:02.050Z,6.70
2023-05-04T21:54:05.325Z,6.70
2023-05-04T21:57:10.277Z,6.70
2023-05-04T22:00:18.169Z,6.60
2023-05-04T22:03:21.765Z,6.60
2023-05-04T22:06:25.857Z,6.60
2023-05-04T22:09:29.491Z,6.50
2023-05-04T22:12:34.242Z,6.50
2023-05-04T22:15:48.791Z,6.50
2023-05-04T22:18:52.972Z,6.50
2023-05-04T22:21:56.434Z,6.50
2023-05-04T22:24:59.668Z,6.60
2023-05-04T22:28:04.981Z,6.50
2023-05-04T22:31:08.229Z,6.50
2023-05-04T22:34:11.494Z,6.40
2023-05-04T22:37:14.727Z,6.40
2023-05-04T22:40:18.528Z,6.40
2023-05-04T22:43:23.470Z,6.40
2023-05-04T22:46:26.824Z,6.50
2023-05-04T22:49:29.999Z,6.40
2023-05-04T22:52:33.278Z,6.30
2023-05-04T22:55:36.534Z,6.30
2023-05-04T22:58:41.188Z,6.30
2023-05-04T23:01:44.444Z,6.30
2023-05-04T23:04:47.744Z,6.20
2023-05-04T23:07:52.344Z,6.20
2023-05-04T23:10:55.691Z,6.10
2023-05-04T23:14:00.945Z,6.00
2023-05-04T23:17:04.288Z,6.00
2023-05-04T23:20:09.317Z,6.10
2023-05-04T23:23:13.250Z,6.10
2023-05-04T23:26:16.600Z,6.10
2023-05-04T23:29:21.544Z,6.10
2023-05-04T23:32:25.094Z,6.10
2023-05-04T23:35:28.365Z,6.10
2023-05-04T23:38:31.669Z,6.10
2023-05-04T23:41:34.913Z,6.10
2023-05-04T23:44:39.506Z,6.00
2023-05-04T23:47:42.971Z,6.00
2023-05-04T23:50:53.470Z,6.00
2023-05-04T23:53:56.796Z,6.10
2023-05-04T23:57:00.039Z,6.00
